sensor_id;sensor_type;location;lat;lon;timestamp;temperature;humidity
75010;DHT22;63564;46.840;18.336;2023-02-11T00:01:26;-2.08;73.88
75010;DHT22;63564;46.840;18.336;2023-02-11T00:04:27;-2.09;73.99
75010;DHT22;63564;46.840;18.336;2023-02-11T00:07:28;-2.13;73.93
75010;DHT22;63564;46.840;18.336;2023-02-11T00:10:29;-2.08;73.68
75010;DHT22;63564;46.840;18.336;2023-02-11T00:13:29;-2.08;73.50
75010;DHT22;63564;46.840;18.336;2023-02-11T00:16:30;-2.16;73.69
75010;DHT22;63564;46.840;18.336;2023-02-11T00:19:31;-2.13;72.99
75010;DHT22;63564;46.840;18.336;2023-02-11T00:22:31;-2.15;73.07
75010;DHT22;63564;46.840;18.336;2023-02-11T00:25:32;-2.13;73.05
75010;DHT22;63564;46.840;18.336;2023-02-11T00:28:32;-2.08;72.59
75010;DHT22;63564;46.840;18.336;2023-02-11T00:31:33;-2.05;72.45
75010;DHT22;63564;46.840;18.336;2023-02-11T00:34:34;-2.33;74.53
75010;DHT22;63564;46.840;18.336;2023-02-11T00:37:35;-2.45;75.09
75010;DHT22;63564;46.840;18.336;2023-02-11T00:40:35;-2.33;73.41
75010;DHT22;63564;46.840;18.336;2023-02-11T00:43:36;-2.22;72.91
75010;DHT22;63564;46.840;18.336;2023-02-11T00:46:36;-2.12;72.59
75010;DHT22;63564;46.840;18.336;2023-02-11T00:49:37;-2.08;72.68
75010;DHT22;63564;46.840;18.336;2023-02-11T00:52:39;-2.08;72.43
75010;DHT22;63564;46.840;18.336;2023-02-11T00:55:39;-2.11;72.27
75010;DHT22;63564;46.840;18.336;2023-02-11T00:58:40;-2.11;72.31
75010;DHT22;63564;46.840;18.336;2023-02-11T01:01:40;-2.11;72.18
75010;DHT22;63564;46.840;18.336;2023-02-11T01:04:41;-2.01;71.94
75010;DHT22;63564;46.840;18.336;2023-02-11T01:07:42;-1.97;71.43
75010;DHT22;63564;46.840;18.336;2023-02-11T01:10:42;-1.97;71.30
75010;DHT22;63564;46.840;18.336;2023-02-11T01:13:43;-2.04;71.71
75010;DHT22;63564;46.840;18.336;2023-02-11T01:16:43;-2.12;72.22
75010;DHT22;63564;46.840;18.336;2023-02-11T01:19:44;-2.21;72.70
75010;DHT22;63564;46.840;18.336;2023-02-11T01:22:44;-2.26;73.24
75010;DHT22;63564;46.840;18.336;2023-02-11T01:25:45;-2.15;72.54
75010;DHT22;63564;46.840;18.336;2023-02-11T01:28:46;-2.26;72.90
75010;DHT22;63564;46.840;18.336;2023-02-11T01:31:47;-2.08;72.10
75010;DHT22;63564;46.840;18.336;2023-02-11T01:34:47;-1.97;71.74
75010;DHT22;63564;46.840;18.336;2023-02-11T01:37:48;-1.92;71.67
75010;DHT22;63564;46.840;18.336;2023-02-11T01:40:55;-1.97;71.65
75010;DHT22;63564;46.840;18.336;2023-02-11T01:43:56;-1.98;71.89
75010;DHT22;63564;46.840;18.336;2023-02-11T01:46:57;-2.01;72.01
75010;DHT22;63564;46.840;18.336;2023-02-11T01:49:59;-2.02;71.89
75010;DHT22;63564;46.840;18.336;2023-02-11T01:53:01;-2.21;73.20
75010;DHT22;63564;46.840;18.336;2023-02-11T01:56:24;-2.11;72.63
75010;DHT22;63564;46.840;18.336;2023-02-11T02:03:14;-2.25;73.60
75010;DHT22;63564;46.840;18.336;2023-02-11T02:06:27;-2.43;74.46
75010;DHT22;63564;46.840;18.336;2023-02-11T02:09:32;-2.48;74.13
75010;DHT22;63564;46.840;18.336;2023-02-11T02:12:35;-2.73;75.34
75010;DHT22;63564;46.840;18.336;2023-02-11T02:15:37;-2.88;76.09
75010;DHT22;63564;46.840;18.336;2023-02-11T02:29:05;-3.62;78.32
75010;DHT22;63564;46.840;18.336;2023-02-11T02:32:21;-4.18;80.45
75010;DHT22;63564;46.840;18.336;2023-02-11T02:35:39;-4.09;80.63
75010;DHT22;63564;46.840;18.336;2023-02-11T02:41:51;-3.87;79.74
75010;DHT22;63564;46.840;18.336;2023-02-11T02:44:54;-3.91;79.19
75010;DHT22;63564;46.840;18.336;2023-02-11T02:47:55;-3.95;80.03
75010;DHT22;63564;46.840;18.336;2023-02-11T03:01:30;-3.81;79.89
75010;DHT22;63564;46.840;18.336;2023-02-11T03:10:37;-3.66;79.05
75010;DHT22;63564;46.840;18.336;2023-02-11T03:13:39;-3.75;79.16
75010;DHT22;63564;46.840;18.336;2023-02-11T03:16:42;-3.81;78.26
75010;DHT22;63564;46.840;18.336;2023-02-11T03:19:45;-4.33;79.54
75010;DHT22;63564;46.840;18.336;2023-02-11T03:25:58;-4.88;82.62
75010;DHT22;63564;46.840;18.336;2023-02-11T03:29:16;-5.04;83.50
75010;DHT22;63564;46.840;18.336;2023-02-11T03:32:31;-5.02;84.47
75010;DHT22;63564;46.840;18.336;2023-02-11T03:35:53;-5.02;84.19
75010;DHT22;63564;46.840;18.336;2023-02-11T03:38:56;-5.19;84.71
75010;DHT22;63564;46.840;18.336;2023-02-11T03:41:58;-5.12;85.03
75010;DHT22;63564;46.840;18.336;2023-02-11T03:45:05;-4.85;84.48
75010;DHT22;63564;46.840;18.336;2023-02-11T03:48:13;-4.80;83.44
75010;DHT22;63564;46.840;18.336;2023-02-11T03:51:15;-4.97;84.06
75010;DHT22;63564;46.840;18.336;2023-02-11T03:54:19;-5.07;84.74
75010;DHT22;63564;46.840;18.336;2023-02-11T03:57:22;-5.15;84.52
75010;DHT22;63564;46.840;18.336;2023-02-11T04:00:35;-4.95;85.10
75010;DHT22;63564;46.840;18.336;2023-02-11T04:03:37;-4.71;84.36
75010;DHT22;63564;46.840;18.336;2023-02-11T04:06:37;-4.80;84.10
75010;DHT22;63564;46.840;18.336;2023-02-11T04:09:38;-4.56;82.08
75010;DHT22;63564;46.840;18.336;2023-02-11T04:12:38;-4.48;82.15
75010;DHT22;63564;46.840;18.336;2023-02-11T04:15:39;-4.23;82.09
75010;DHT22;63564;46.840;18.336;2023-02-11T04:18:39;-3.99;81.15
75010;DHT22;63564;46.840;18.336;2023-02-11T04:21:39;-3.83;80.47
75010;DHT22;63564;46.840;18.336;2023-02-11T04:24:40;-3.73;79.49
75010;DHT22;63564;46.840;18.336;2023-02-11T04:27:43;-3.75;78.81
75010;DHT22;63564;46.840;18.336;2023-02-11T04:30:43;-3.64;79.10
75010;DHT22;63564;46.840;18.336;2023-02-11T04:33:43;-3.64;79.12
75010;DHT22;63564;46.840;18.336;2023-02-11T04:36:44;-3.73;79.33
75010;DHT22;63564;46.840;18.336;2023-02-11T04:39:44;-3.90;78.98
75010;DHT22;63564;46.840;18.336;2023-02-11T04:42:44;-3.94;79.15
75010;DHT22;63564;46.840;18.336;2023-02-11T04:45:45;-4.09;79.61
75010;DHT22;63564;46.840;18.336;2023-02-11T04:48:45;-4.39;81.04
75010;DHT22;63564;46.840;18.336;2023-02-11T04:51:46;-4.19;80.86
75010;DHT22;63564;46.840;18.336;2023-02-11T04:54:46;-4.15;80.55
75010;DHT22;63564;46.840;18.336;2023-02-11T04:57:46;-4.11;80.13
75010;DHT22;63564;46.840;18.336;2023-02-11T05:00:47;-3.93;79.80
75010;DHT22;63564;46.840;18.336;2023-02-11T05:03:47;-3.94;80.49
75010;DHT22;63564;46.840;18.336;2023-02-11T05:06:48;-3.84;79.67
75010;DHT22;63564;46.840;18.336;2023-02-11T05:09:48;-3.78;79.42
75010;DHT22;63564;46.840;18.336;2023-02-11T05:12:49;-3.71;79.06
75010;DHT22;63564;46.840;18.336;2023-02-11T05:15:49;-3.91;79.67
75010;DHT22;63564;46.840;18.336;2023-02-11T05:18:50;-4.56;81.30
75010;DHT22;63564;46.840;18.336;2023-02-11T05:21:50;-4.64;82.46
75010;DHT22;63564;46.840;18.336;2023-02-11T05:24:52;-4.95;82.96
75010;DHT22;63564;46.840;18.336;2023-02-11T05:27:52;-5.02;82.63
75010;DHT22;63564;46.840;18.336;2023-02-11T05:30:53;-4.70;82.95
75010;DHT22;63564;46.840;18.336;2023-02-11T05:33:53;-4.48;82.69
75010;DHT22;63564;46.840;18.336;2023-02-11T05:36:54;-4.53;82.54
75010;DHT22;63564;46.840;18.336;2023-02-11T05:39:54;-4.53;82.83
75010;DHT22;63564;46.840;18.336;2023-02-11T05:42:55;-4.74;82.63
75010;DHT22;63564;46.840;18.336;2023-02-11T05:45:55;-4.74;83.62
75010;DHT22;63564;46.840;18.336;2023-02-11T05:48:56;-4.54;83.00
75010;DHT22;63564;46.840;18.336;2023-02-11T05:51:56;-4.69;82.52
75010;DHT22;63564;46.840;18.336;2023-02-11T05:54:57;-4.57;82.59
75010;DHT22;63564;46.840;18.336;2023-02-11T05:57:57;-4.70;82.62
75010;DHT22;63564;46.840;18.336;2023-02-11T06:00:58;-4.71;83.19
75010;DHT22;63564;46.840;18.336;2023-02-11T06:03:58;-4.66;82.85
75010;DHT22;63564;46.840;18.336;2023-02-11T06:06:58;-4.90;83.37
75010;DHT22;63564;46.840;18.336;2023-02-11T06:09:59;-4.98;83.49
75010;DHT22;63564;46.840;18.336;2023-02-11T06:13:00;-5.22;84.39
75010;DHT22;63564;46.840;18.336;2023-02-11T06:16:01;-5.16;84.80
75010;DHT22;63564;46.840;18.336;2023-02-11T06:19:02;-5.04;83.69
75010;DHT22;63564;46.840;18.336;2023-02-11T06:22:02;-5.30;84.96
75010;DHT22;63564;46.840;18.336;2023-02-11T06:25:03;-5.15;85.29
75010;DHT22;63564;46.840;18.336;2023-02-11T06:28:04;-4.97;84.91
75010;DHT22;63564;46.840;18.336;2023-02-11T06:31:05;-5.04;85.16
75010;DHT22;63564;46.840;18.336;2023-02-11T06:34:07;-4.98;84.57
75010;DHT22;63564;46.840;18.336;2023-02-11T06:37:08;-4.71;83.07
75010;DHT22;63564;46.840;18.336;2023-02-11T06:40:10;-4.60;83.62
75010;DHT22;63564;46.840;18.336;2023-02-11T06:43:10;-4.54;83.47
75010;DHT22;63564;46.840;18.336;2023-02-11T06:46:11;-4.49;83.24
75010;DHT22;63564;46.840;18.336;2023-02-11T06:49:11;-4.40;83.13
75010;DHT22;63564;46.840;18.336;2023-02-11T06:52:12;-4.29;82.81
75010;DHT22;63564;46.840;18.336;2023-02-11T06:55:13;-4.22;83.10
75010;DHT22;63564;46.840;18.336;2023-02-11T06:58:13;-3.99;82.25
75010;DHT22;63564;46.840;18.336;2023-02-11T07:01:15;-3.84;81.98
75010;DHT22;63564;46.840;18.336;2023-02-11T07:04:15;-3.62;81.55
75010;DHT22;63564;46.840;18.336;2023-02-11T07:07:16;-3.43;81.39
75010;DHT22;63564;46.840;18.336;2023-02-11T07:10:16;-3.18;80.57
75010;DHT22;63564;46.840;18.336;2023-02-11T07:13:17;-2.91;79.76
75010;DHT22;63564;46.840;18.336;2023-02-11T07:16:18;-2.84;79.75
75010;DHT22;63564;46.840;18.336;2023-02-11T07:19:18;-2.77;79.52
75010;DHT22;63564;46.840;18.336;2023-02-11T07:22:19;-2.52;78.90
75010;DHT22;63564;46.840;18.336;2023-02-11T07:25:19;-2.30;78.28
75010;DHT22;63564;46.840;18.336;2023-02-11T07:28:19;-2.21;77.85
75010;DHT22;63564;46.840;18.336;2023-02-11T07:31:24;-2.15;78.19
75010;DHT22;63564;46.840;18.336;2023-02-11T07:34:24;-1.99;78.04
75010;DHT22;63564;46.840;18.336;2023-02-11T07:37:25;-1.91;77.74
75010;DHT22;63564;46.840;18.336;2023-02-11T07:40:25;-1.71;77.03
75010;DHT22;63564;46.840;18.336;2023-02-11T07:43:27;-1.45;76.39
75010;DHT22;63564;46.840;18.336;2023-02-11T07:46:27;-1.13;75.62
75010;DHT22;63564;46.840;18.336;2023-02-11T07:49:28;-0.68;74.82
75010;DHT22;63564;46.840;18.336;2023-02-11T07:52:29;-0.29;73.02
75010;DHT22;63564;46.840;18.336;2023-02-11T07:55:30;0.05;72.44
75010;DHT22;63564;46.840;18.336;2023-02-11T07:58:32;0.10;73.04
75010;DHT22;63564;46.840;18.336;2023-02-11T08:01:32;0.32;73.19
75010;DHT22;63564;46.840;18.336;2023-02-11T08:04:33;0.75;72.36
75010;DHT22;63564;46.840;18.336;2023-02-11T08:07:33;1.13;69.96
75010;DHT22;63564;46.840;18.336;2023-02-11T08:10:34;1.40;69.25
75010;DHT22;63564;46.840;18.336;2023-02-11T08:13:34;1.49;67.49
75010;DHT22;63564;46.840;18.336;2023-02-11T08:16:36;1.74;66.31
75010;DHT22;63564;46.840;18.336;2023-02-11T08:19:38;1.66;67.00
75010;DHT22;63564;46.840;18.336;2023-02-11T08:22:38;1.64;66.63
75010;DHT22;63564;46.840;18.336;2023-02-11T08:25:38;1.39;67.59
75010;DHT22;63564;46.840;18.336;2023-02-11T08:28:41;1.56;68.09
75010;DHT22;63564;46.840;18.336;2023-02-11T08:31:44;1.97;66.73
75010;DHT22;63564;46.840;18.336;2023-02-11T08:34:45;2.33;66.02
75010;DHT22;63564;46.840;18.336;2023-02-11T08:37:45;2.60;65.70
75010;DHT22;63564;46.840;18.336;2023-02-11T08:40:46;2.80;65.42
75010;DHT22;63564;46.840;18.336;2023-02-11T08:43:47;2.66;65.66
75010;DHT22;63564;46.840;18.336;2023-02-11T08:46:48;2.91;65.26
75010;DHT22;63564;46.840;18.336;2023-02-11T08:49:49;2.98;65.50
75010;DHT22;63564;46.840;18.336;2023-02-11T08:52:49;3.00;64.76
75010;DHT22;63564;46.840;18.336;2023-02-11T08:55:53;3.23;64.58
75010;DHT22;63564;46.840;18.336;2023-02-11T08:58:54;3.44;64.58
75010;DHT22;63564;46.840;18.336;2023-02-11T09:01:55;3.58;65.04
75010;DHT22;63564;46.840;18.336;2023-02-11T09:04:56;3.49;65.02
75010;DHT22;63564;46.840;18.336;2023-02-11T09:07:56;3.78;63.73
75010;DHT22;63564;46.840;18.336;2023-02-11T09:10:57;3.83;63.76
75010;DHT22;63564;46.840;18.336;2023-02-11T09:13:57;3.99;63.05
75010;DHT22;63564;46.840;18.336;2023-02-11T09:16:58;3.97;60.25
75010;DHT22;63564;46.840;18.336;2023-02-11T09:19:58;4.01;59.63
75010;DHT22;63564;46.840;18.336;2023-02-11T09:22:59;4.12;59.42
75010;DHT22;63564;46.840;18.336;2023-02-11T09:26:05;4.08;60.72
75010;DHT22;63564;46.840;18.336;2023-02-11T09:29:05;4.19;58.85
75010;DHT22;63564;46.840;18.336;2023-02-11T09:32:06;4.04;59.84
75010;DHT22;63564;46.840;18.336;2023-02-11T09:35:07;4.22;59.59
75010;DHT22;63564;46.840;18.336;2023-02-11T09:38:07;4.39;59.59
75010;DHT22;63564;46.840;18.336;2023-02-11T09:44:34;4.59;53.86
75010;DHT22;63564;46.840;18.336;2023-02-11T09:47:44;4.50;53.05
75010;DHT22;63564;46.840;18.336;2023-02-11T09:50:57;4.59;53.12
75010;DHT22;63564;46.840;18.336;2023-02-11T09:54:03;4.53;52.17
75010;DHT22;63564;46.840;18.336;2023-02-11T09:57:08;4.45;52.31
75010;DHT22;63564;46.840;18.336;2023-02-11T10:00:23;4.55;51.92
75010;DHT22;63564;46.840;18.336;2023-02-11T10:06:54;4.53;51.95
75010;DHT22;63564;46.840;18.336;2023-02-11T10:10:34;4.67;52.04
75010;DHT22;63564;46.840;18.336;2023-02-11T10:13:46;4.93;51.74
75010;DHT22;63564;46.840;18.336;2023-02-11T10:20:13;5.91;48.64
75010;DHT22;63564;46.840;18.336;2023-02-11T10:23:20;5.97;48.52
75010;DHT22;63564;46.840;18.336;2023-02-11T10:26:22;6.21;47.20
75010;DHT22;63564;46.840;18.336;2023-02-11T10:29:36;7.21;45.27
75010;DHT22;63564;46.840;18.336;2023-02-11T10:32:43;7.70;43.79
75010;DHT22;63564;46.840;18.336;2023-02-11T10:35:44;7.35;43.26
75010;DHT22;63564;46.840;18.336;2023-02-11T10:38:45;7.21;43.14
75010;DHT22;63564;46.840;18.336;2023-02-11T10:41:50;6.57;44.87
75010;DHT22;63564;46.840;18.336;2023-02-11T10:45:03;6.56;45.34
75010;DHT22;63564;46.840;18.336;2023-02-11T10:48:44;6.57;46.06
75010;DHT22;63564;46.840;18.336;2023-02-11T10:55:21;5.97;45.66
75010;DHT22;63564;46.840;18.336;2023-02-11T10:58:27;5.87;45.98
75010;DHT22;63564;46.840;18.336;2023-02-11T11:01:45;5.90;46.53
75010;DHT22;63564;46.840;18.336;2023-02-11T11:04:46;6.15;45.44
75010;DHT22;63564;46.840;18.336;2023-02-11T11:07:52;6.07;45.96
75010;DHT22;63564;46.840;18.336;2023-02-11T11:11:04;5.90;45.83
75010;DHT22;63564;46.840;18.336;2023-02-11T11:14:17;5.76;46.29
75010;DHT22;63564;46.840;18.336;2023-02-11T11:17:18;5.55;46.83
75010;DHT22;63564;46.840;18.336;2023-02-11T11:20:22;5.86;46.53
75010;DHT22;63564;46.840;18.336;2023-02-11T11:23:23;5.96;46.11
75010;DHT22;63564;46.840;18.336;2023-02-11T11:26:27;6.49;44.91
75010;DHT22;63564;46.840;18.336;2023-02-11T11:29:38;6.24;45.38
75010;DHT22;63564;46.840;18.336;2023-02-11T11:32:40;6.18;45.54
75010;DHT22;63564;46.840;18.336;2023-02-11T11:36:08;5.79;45.82
75010;DHT22;63564;46.840;18.336;2023-02-11T11:39:22;5.94;47.02
75010;DHT22;63564;46.840;18.336;2023-02-11T11:42:29;6.57;44.21
75010;DHT22;63564;46.840;18.336;2023-02-11T11:45:30;7.28;43.28
75010;DHT22;63564;46.840;18.336;2023-02-11T11:48:37;7.61;42.10
75010;DHT22;63564;46.840;18.336;2023-02-11T11:51:39;7.90;41.77
75010;DHT22;63564;46.840;18.336;2023-02-11T11:54:44;7.72;42.39
75010;DHT22;63564;46.840;18.336;2023-02-11T11:57:47;7.35;43.05
75010;DHT22;63564;46.840;18.336;2023-02-11T12:07:42;7.42;42.46
75010;DHT22;63564;46.840;18.336;2023-02-11T12:24:09;7.70;41.65
75010;DHT22;63564;46.840;18.336;2023-02-11T12:34:05;6.73;42.26
75010;DHT22;63564;46.840;18.336;2023-02-11T12:40:45;7.79;38.81
75010;DHT22;63564;46.840;18.336;2023-02-11T12:43:50;8.03;40.33
75010;DHT22;63564;46.840;18.336;2023-02-11T12:47:07;7.69;39.28
75010;DHT22;63564;46.840;18.336;2023-02-11T12:50:18;7.80;39.47
75010;DHT22;63564;46.840;18.336;2023-02-11T12:59:46;8.94;37.30
75010;DHT22;63564;46.840;18.336;2023-02-11T13:02:55;8.99;36.48
75010;DHT22;63564;46.840;18.336;2023-02-11T13:06:04;9.49;36.03
75010;DHT22;63564;46.840;18.336;2023-02-11T13:09:13;9.52;35.36
75010;DHT22;63564;46.840;18.336;2023-02-11T13:12:18;9.81;34.98
75010;DHT22;63564;46.840;18.336;2023-02-11T13:15:37;8.87;36.16
75010;DHT22;63564;46.840;18.336;2023-02-11T13:18:55;8.31;37.33
75010;DHT22;63564;46.840;18.336;2023-02-11T13:22:12;8.58;37.13
75010;DHT22;63564;46.840;18.336;2023-02-11T13:25:29;8.30;37.24
75010;DHT22;63564;46.840;18.336;2023-02-11T13:29:00;8.65;36.42
75010;DHT22;63564;46.840;18.336;2023-02-11T13:32:12;8.33;36.76
75010;DHT22;63564;46.840;18.336;2023-02-11T13:38:35;8.14;37.27
75010;DHT22;63564;46.840;18.336;2023-02-11T13:41:39;8.58;36.75
75010;DHT22;63564;46.840;18.336;2023-02-11T13:44:41;8.10;37.12
75010;DHT22;63564;46.840;18.336;2023-02-11T13:47:41;7.77;37.24
75010;DHT22;63564;46.840;18.336;2023-02-11T13:50:49;7.70;37.53
75010;DHT22;63564;46.840;18.336;2023-02-11T13:53:55;7.47;38.07
75010;DHT22;63564;46.840;18.336;2023-02-11T14:03:38;7.04;39.38
75010;DHT22;63564;46.840;18.336;2023-02-11T14:10:49;7.05;39.30
75010;DHT22;63564;46.840;18.336;2023-02-11T14:19:58;7.48;38.06
75010;DHT22;63564;46.840;18.336;2023-02-11T14:23:00;7.36;38.34
75010;DHT22;63564;46.840;18.336;2023-02-11T14:26:29;7.12;38.24
75010;DHT22;63564;46.840;18.336;2023-02-11T14:29:48;7.01;38.82
75010;DHT22;63564;46.840;18.336;2023-02-11T14:36:53;6.80;38.36
75010;DHT22;63564;46.840;18.336;2023-02-11T14:40:45;6.72;38.86
75010;DHT22;63564;46.840;18.336;2023-02-11T14:43:49;6.63;38.81
75010;DHT22;63564;46.840;18.336;2023-02-11T14:46:51;6.65;39.46
75010;DHT22;63564;46.840;18.336;2023-02-11T14:49:53;6.61;39.52
75010;DHT22;63564;46.840;18.336;2023-02-11T14:52:54;6.62;39.94
75010;DHT22;63564;46.840;18.336;2023-02-11T14:55:55;6.56;39.79
75010;DHT22;63564;46.840;18.336;2023-02-11T14:58:56;6.42;40.72
75010;DHT22;63564;46.840;18.336;2023-02-11T15:01:57;6.38;41.29
75010;DHT22;63564;46.840;18.336;2023-02-11T15:05:21;6.32;41.64
75010;DHT22;63564;46.840;18.336;2023-02-11T15:08:23;6.26;42.06
75010;DHT22;63564;46.840;18.336;2023-02-11T15:11:24;6.20;42.35
75010;DHT22;63564;46.840;18.336;2023-02-11T15:14:31;6.20;42.36
75010;DHT22;63564;46.840;18.336;2023-02-11T15:17:32;6.17;42.64
75010;DHT22;63564;46.840;18.336;2023-02-11T15:20:33;6.13;42.66
75010;DHT22;63564;46.840;18.336;2023-02-11T15:23:35;6.06;42.72
75010;DHT22;63564;46.840;18.336;2023-02-11T15:26:36;6.01;42.79
75010;DHT22;63564;46.840;18.336;2023-02-11T15:29:40;5.96;42.83
75010;DHT22;63564;46.840;18.336;2023-02-11T15:32:43;5.93;43.21
75010;DHT22;63564;46.840;18.336;2023-02-11T15:35:44;5.81;43.78
75010;DHT22;63564;46.840;18.336;2023-02-11T15:38:45;5.67;44.41
75010;DHT22;63564;46.840;18.336;2023-02-11T15:41:46;5.52;45.21
75010;DHT22;63564;46.840;18.336;2023-02-11T15:44:48;5.39;45.37
75010;DHT22;63564;46.840;18.336;2023-02-11T15:47:51;5.31;45.65
75010;DHT22;63564;46.840;18.336;2023-02-11T15:50:55;5.24;45.98
75010;DHT22;63564;46.840;18.336;2023-02-11T15:54:01;5.17;46.06
75010;DHT22;63564;46.840;18.336;2023-02-11T15:57:04;5.12;45.93
75010;DHT22;63564;46.840;18.336;2023-02-11T16:00:13;5.21;45.55
75010;DHT22;63564;46.840;18.336;2023-02-11T16:03:26;5.20;46.09
75010;DHT22;63564;46.840;18.336;2023-02-11T16:06:37;5.17;46.49
75010;DHT22;63564;46.840;18.336;2023-02-11T16:09:41;5.15;46.40
75010;DHT22;63564;46.840;18.336;2023-02-11T16:12:50;5.11;46.56
75010;DHT22;63564;46.840;18.336;2023-02-11T16:15:54;5.10;46.77
75010;DHT22;63564;46.840;18.336;2023-02-11T16:18:59;5.10;46.91
75010;DHT22;63564;46.840;18.336;2023-02-11T16:22:06;5.05;47.32
75010;DHT22;63564;46.840;18.336;2023-02-11T16:25:17;5.01;47.75
75010;DHT22;63564;46.840;18.336;2023-02-11T16:28:19;4.97;48.13
75010;DHT22;63564;46.840;18.336;2023-02-11T16:31:19;4.91;48.52
75010;DHT22;63564;46.840;18.336;2023-02-11T16:34:23;4.87;48.75
75010;DHT22;63564;46.840;18.336;2023-02-11T16:37:25;4.79;49.44
75010;DHT22;63564;46.840;18.336;2023-02-11T16:40:26;4.74;50.06
75010;DHT22;63564;46.840;18.336;2023-02-11T16:43:26;4.73;50.14
75010;DHT22;63564;46.840;18.336;2023-02-11T16:46:28;4.70;50.29
75010;DHT22;63564;46.840;18.336;2023-02-11T16:49:35;4.66;50.74
75010;DHT22;63564;46.840;18.336;2023-02-11T16:52:36;4.59;50.96
75010;DHT22;63564;46.840;18.336;2023-02-11T16:55:37;4.62;50.75
75010;DHT22;63564;46.840;18.336;2023-02-11T16:58:41;4.60;50.81
75010;DHT22;63564;46.840;18.336;2023-02-11T17:01:42;4.59;51.39
75010;DHT22;63564;46.840;18.336;2023-02-11T17:04:44;4.57;51.24
75010;DHT22;63564;46.840;18.336;2023-02-11T17:07:45;4.53;51.43
75010;DHT22;63564;46.840;18.336;2023-02-11T17:10:47;4.56;51.46
75010;DHT22;63564;46.840;18.336;2023-02-11T17:13:48;4.46;52.03
75010;DHT22;63564;46.840;18.336;2023-02-11T17:16:49;4.46;52.33
75010;DHT22;63564;46.840;18.336;2023-02-11T17:19:49;4.41;52.44
75010;DHT22;63564;46.840;18.336;2023-02-11T17:22:50;4.39;52.89
75010;DHT22;63564;46.840;18.336;2023-02-11T17:25:55;4.32;53.07
75010;DHT22;63564;46.840;18.336;2023-02-11T17:28:56;4.29;53.23
75010;DHT22;63564;46.840;18.336;2023-02-11T17:31:57;4.25;53.44
75010;DHT22;63564;46.840;18.336;2023-02-11T17:34:57;4.21;53.39
75010;DHT22;63564;46.840;18.336;2023-02-11T17:37:58;4.15;53.44
75010;DHT22;63564;46.840;18.336;2023-02-11T17:41:02;4.15;53.59
75010;DHT22;63564;46.840;18.336;2023-02-11T17:44:05;4.12;53.50
75010;DHT22;63564;46.840;18.336;2023-02-11T17:47:06;4.15;53.41
75010;DHT22;63564;46.840;18.336;2023-02-11T17:50:07;4.09;53.69
75010;DHT22;63564;46.840;18.336;2023-02-11T17:53:08;4.16;53.34
75010;DHT22;63564;46.840;18.336;2023-02-11T17:56:09;4.12;53.44
75010;DHT22;63564;46.840;18.336;2023-02-11T17:59:12;4.22;53.08
75010;DHT22;63564;46.840;18.336;2023-02-11T18:02:13;4.22;52.75
75010;DHT22;63564;46.840;18.336;2023-02-11T18:05:14;4.21;52.56
75010;DHT22;63564;46.840;18.336;2023-02-11T18:08:15;4.25;52.30
75010;DHT22;63564;46.840;18.336;2023-02-11T18:11:17;4.26;52.33
75010;DHT22;63564;46.840;18.336;2023-02-11T18:14:20;4.21;52.40
75010;DHT22;63564;46.840;18.336;2023-02-11T18:17:21;4.22;52.57
75010;DHT22;63564;46.840;18.336;2023-02-11T18:20:22;4.22;52.50
75010;DHT22;63564;46.840;18.336;2023-02-11T18:23:23;4.14;53.12
75010;DHT22;63564;46.840;18.336;2023-02-11T18:26:23;4.12;52.79
75010;DHT22;63564;46.840;18.336;2023-02-11T18:29:27;4.07;52.95
75010;DHT22;63564;46.840;18.336;2023-02-11T18:32:28;4.02;53.29
75010;DHT22;63564;46.840;18.336;2023-02-11T18:35:29;4.01;53.42
75010;DHT22;63564;46.840;18.336;2023-02-11T18:38:30;3.95;53.71
75010;DHT22;63564;46.840;18.336;2023-02-11T18:41:31;3.93;53.64
75010;DHT22;63564;46.840;18.336;2023-02-11T18:44:32;3.88;54.07
75010;DHT22;63564;46.840;18.336;2023-02-11T18:47:34;3.86;54.68
75010;DHT22;63564;46.840;18.336;2023-02-11T18:50:38;3.86;54.51
75010;DHT22;63564;46.840;18.336;2023-02-11T18:53:39;3.81;54.87
75010;DHT22;63564;46.840;18.336;2023-02-11T18:56:42;3.84;54.78
75010;DHT22;63564;46.840;18.336;2023-02-11T18:59:42;3.77;55.00
75010;DHT22;63564;46.840;18.336;2023-02-11T19:02:43;3.77;55.09
75010;DHT22;63564;46.840;18.336;2023-02-11T19:05:46;3.74;54.92
75010;DHT22;63564;46.840;18.336;2023-02-11T19:08:47;3.78;55.05
75010;DHT22;63564;46.840;18.336;2023-02-11T19:11:50;3.71;55.39
75010;DHT22;63564;46.840;18.336;2023-02-11T19:14:51;3.67;55.76
75010;DHT22;63564;46.840;18.336;2023-02-11T19:17:52;3.62;55.72
75010;DHT22;63564;46.840;18.336;2023-02-11T19:20:53;3.55;56.10
75010;DHT22;63564;46.840;18.336;2023-02-11T19:23:55;3.49;56.34
75010;DHT22;63564;46.840;18.336;2023-02-11T19:27:00;3.50;56.01
75010;DHT22;63564;46.840;18.336;2023-02-11T19:30:01;3.42;56.84
75010;DHT22;63564;46.840;18.336;2023-02-11T19:33:02;3.33;56.89
75010;DHT22;63564;46.840;18.336;2023-02-11T19:36:04;3.35;56.65
75010;DHT22;63564;46.840;18.336;2023-02-11T19:39:06;3.31;57.05
75010;DHT22;63564;46.840;18.336;2023-02-11T19:42:07;3.23;57.34
75010;DHT22;63564;46.840;18.336;2023-02-11T19:45:09;3.16;57.58
75010;DHT22;63564;46.840;18.336;2023-02-11T19:48:11;3.09;57.86
75010;DHT22;63564;46.840;18.336;2023-02-11T19:51:15;3.09;57.62
75010;DHT22;63564;46.840;18.336;2023-02-11T19:54:17;3.19;57.60
75010;DHT22;63564;46.840;18.336;2023-02-11T19:57:19;3.21;57.22
75010;DHT22;63564;46.840;18.336;2023-02-11T20:00:20;3.22;57.45
75010;DHT22;63564;46.840;18.336;2023-02-11T20:03:21;3.22;57.62
75010;DHT22;63564;46.840;18.336;2023-02-11T20:06:25;3.22;57.42
75010;DHT22;63564;46.840;18.336;2023-02-11T20:09:28;3.25;57.45
75010;DHT22;63564;46.840;18.336;2023-02-11T20:12:31;3.28;57.51
75010;DHT22;63564;46.840;18.336;2023-02-11T20:15:32;3.22;58.20
75010;DHT22;63564;46.840;18.336;2023-02-11T20:18:33;3.21;58.58
75010;DHT22;63564;46.840;18.336;2023-02-11T20:21:34;3.19;58.79
75010;DHT22;63564;46.840;18.336;2023-02-11T20:24:34;3.21;59.24
75010;DHT22;63564;46.840;18.336;2023-02-11T20:27:35;3.16;60.09
75010;DHT22;63564;46.840;18.336;2023-02-11T20:30:36;3.09;60.69
75010;DHT22;63564;46.840;18.336;2023-02-11T20:33:40;3.12;60.49
75010;DHT22;63564;46.840;18.336;2023-02-11T20:36:42;3.12;60.48
75010;DHT22;63564;46.840;18.336;2023-02-11T20:39:43;3.15;60.35
75010;DHT22;63564;46.840;18.336;2023-02-11T20:42:44;3.16;60.57
75010;DHT22;63564;46.840;18.336;2023-02-11T20:45:45;3.26;60.23
75010;DHT22;63564;46.840;18.336;2023-02-11T20:48:46;3.42;59.58
75010;DHT22;63564;46.840;18.336;2023-02-11T20:51:47;3.63;58.88
75010;DHT22;63564;46.840;18.336;2023-02-11T20:54:48;3.84;57.69
75010;DHT22;63564;46.840;18.336;2023-02-11T20:57:51;3.94;57.65
75010;DHT22;63564;46.840;18.336;2023-02-11T21:00:52;3.98;57.22
75010;DHT22;63564;46.840;18.336;2023-02-11T21:03:57;3.98;57.41